sensor_id;sensor_type;location;lat;lon;timestamp;temperature;humidity
7016;DHT22;3548;48.402;9.990;2023-04-07T00:00:21;6.80;99.90
7016;DHT22;3548;48.402;9.990;2023-04-07T00:02:46;6.80;99.90
7016;DHT22;3548;48.402;9.990;2023-04-07T00:05:13;6.70;99.90
7016;DHT22;3548;48.402;9.990;2023-04-07T00:07:39;6.60;99.90
7016;DHT22;3548;48.402;9.990;2023-04-07T00:10:05;6.50;99.90
7016;DHT22;3548;48.402;9.990;2023-04-07T00:12:31;6.50;99.90
7016;DHT22;3548;48.402;9.990;2023-04-07T00:14:57;6.50;99.90
7016;DHT22;3548;48.402;9.990;2023-04-07T00:17:22;6.50;99.90
7016;DHT22;3548;48.402;9.990;2023-04-07T00:19:48;6.50;99.90
7016;DHT22;3548;48.402;9.990;2023-04-07T00:22:13;6.50;99.90
7016;DHT22;3548;48.402;9.990;2023-04-07T00:24:39;6.50;99.90
7016;DHT22;3548;48.402;9.990;2023-04-07T00:27:04;6.50;99.90
7016;DHT22;3548;48.402;9.990;2023-04-07T00:29:30;6.50;99.90
7016;DHT22;3548;48.402;9.990;2023-04-07T00:31:56;6.50;99.90
7016;DHT22;3548;48.402;9.990;2023-04-07T00:34:21;6.50;99.90
7016;DHT22;3548;48.402;9.990;2023-04-07T00:36:47;6.40;99.90
7016;DHT22;3548;48.402;9.990;2023-04-07T00:39:17;6.40;99.90
7016;DHT22;3548;48.402;9.990;2023-04-07T00:41:44;6.30;99.90
7016;DHT22;3548;48.402;9.990;2023-04-07T00:44:10;6.30;99.90
7016;DHT22;3548;48.402;9.990;2023-04-07T00:46:35;6.30;99.90
7016;DHT22;3548;48.402;9.990;2023-04-07T00:49:01;6.30;99.90
7016;DHT22;3548;48.402;9.990;2023-04-07T00:51:27;6.20;99.90
7016;DHT22;3548;48.402;9.990;2023-04-07T00:53:53;6.20;99.90
7016;DHT22;3548;48.402;9.990;2023-04-07T00:56:19;6.20;99.90
7016;DHT22;3548;48.402;9.990;2023-04-07T00:58:44;6.20;99.90
7016;DHT22;3548;48.402;9.990;2023-04-07T01:01:23;6.20;99.90
7016;DHT22;3548;48.402;9.990;2023-04-07T01:03:55;6.10;99.90
7016;DHT22;3548;48.402;9.990;2023-04-07T01:06:25;6.20;99.90
7016;DHT22;3548;48.402;9.990;2023-04-07T01:09:08;6.20;99.90
7016;DHT22;3548;48.402;9.990;2023-04-07T01:12:02;6.20;99.90
7016;DHT22;3548;48.402;9.990;2023-04-07T01:14:34;6.20;99.90
7016;DHT22;3548;48.402;9.990;2023-04-07T01:17:02;6.20;99.90
7016;DHT22;3548;48.402;9.990;2023-04-07T01:19:38;6.20;99.90
7016;DHT22;3548;48.402;9.990;2023-04-07T01:22:11;6.20;99.90
7016;DHT22;3548;48.402;9.990;2023-04-07T01:27:39;6.20;99.90
7016;DHT22;3548;48.402;9.990;2023-04-07T01:30:10;6.10;99.90
7016;DHT22;3548;48.402;9.990;2023-04-07T01:32:37;6.10;99.90
7016;DHT22;3548;48.402;9.990;2023-04-07T01:35:04;6.00;99.90
7016;DHT22;3548;48.402;9.990;2023-04-07T01:37:35;6.00;99.90
7016;DHT22;3548;48.402;9.990;2023-04-07T01:40:03;6.00;99.90
7016;DHT22;3548;48.402;9.990;2023-04-07T01:42:30;6.00;99.90
7016;DHT22;3548;48.402;9.990;2023-04-07T01:44:58;6.00;99.90
7016;DHT22;3548;48.402;9.990;2023-04-07T01:47:25;6.00;99.90
7016;DHT22;3548;48.402;9.990;2023-04-07T01:49:56;6.00;99.90
7016;DHT22;3548;48.402;9.990;2023-04-07T01:52:23;6.00;99.90
7016;DHT22;3548;48.402;9.990;2023-04-07T01:54:49;6.10;99.90
7016;DHT22;3548;48.402;9.990;2023-04-07T01:57:15;6.10;99.90
7016;DHT22;3548;48.402;9.990;2023-04-07T01:59:41;6.10;99.90
7016;DHT22;3548;48.402;9.990;2023-04-07T02:02:06;6.10;99.90
7016;DHT22;3548;48.402;9.990;2023-04-07T02:07:21;6.10;99.90
7016;DHT22;3548;48.402;9.990;2023-04-07T02:09:50;6.10;99.90
7016;DHT22;3548;48.402;9.990;2023-04-07T02:12:20;6.10;99.90
7016;DHT22;3548;48.402;9.990;2023-04-07T02:14:46;6.10;99.90
7016;DHT22;3548;48.402;9.990;2023-04-07T02:17:13;6.10;99.90
7016;DHT22;3548;48.402;9.990;2023-04-07T02:19:40;6.10;99.90
7016;DHT22;3548;48.402;9.990;2023-04-07T02:22:07;6.10;99.90
7016;DHT22;3548;48.402;9.990;2023-04-07T02:24:33;6.10;99.90
7016;DHT22;3548;48.402;9.990;2023-04-07T02:26:58;6.10;99.90
7016;DHT22;3548;48.402;9.990;2023-04-07T02:29:26;6.10;99.90
7016;DHT22;3548;48.402;9.990;2023-04-07T02:31:52;6.10;99.90
7016;DHT22;3548;48.402;9.990;2023-04-07T02:34:17;6.10;99.90
7016;DHT22;3548;48.402;9.990;2023-04-07T02:36:43;6.10;99.90
7016;DHT22;3548;48.402;9.990;2023-04-07T02:39:09;6.10;99.90
7016;DHT22;3548;48.402;9.990;2023-04-07T02:41:35;6.10;99.90
7016;DHT22;3548;48.402;9.990;2023-04-07T02:44:00;6.10;99.90
7016;DHT22;3548;48.402;9.990;2023-04-07T02:46:26;6.10;99.90
7016;DHT22;3548;48.402;9.990;2023-04-07T02:48:51;6.10;99.90
7016;DHT22;3548;48.402;9.990;2023-04-07T02:51:17;6.10;99.90
7016;DHT22;3548;48.402;9.990;2023-04-07T02:53:43;6.10;99.90
7016;DHT22;3548;48.402;9.990;2023-04-07T02:56:08;6.10;99.90
7016;DHT22;3548;48.402;9.990;2023-04-07T02:58:34;6.10;99.90
7016;DHT22;3548;48.402;9.990;2023-04-07T03:00:59;6.10;99.90
7016;DHT22;3548;48.402;9.990;2023-04-07T03:03:25;6.10;99.90
7016;DHT22;3548;48.402;9.990;2023-04-07T03:05:50;6.10;99.90
7016;DHT22;3548;48.402;9.990;2023-04-07T03:08:16;6.10;99.90
7016;DHT22;3548;48.402;9.990;2023-04-07T03:10:42;6.10;99.90
7016;DHT22;3548;48.402;9.990;2023-04-07T03:13:08;6.10;99.90
7016;DHT22;3548;48.402;9.990;2023-04-07T03:15:33;6.10;99.90
7016;DHT22;3548;48.402;9.990;2023-04-07T03:17:59;6.10;99.90
7016;DHT22;3548;48.402;9.990;2023-04-07T03:20:25;6.10;99.90
7016;DHT22;3548;48.402;9.990;2023-04-07T03:22:51;6.10;99.90
7016;DHT22;3548;48.402;9.990;2023-04-07T03:25:17;6.10;99.90
7016;DHT22;3548;48.402;9.990;2023-04-07T03:27:42;6.20;99.90
7016;DHT22;3548;48.402;9.990;2023-04-07T03:30:08;6.20;99.90
7016;DHT22;3548;48.402;9.990;2023-04-07T03:32:34;6.20;99.90
7016;DHT22;3548;48.402;9.990;2023-04-07T03:35:00;6.20;99.90
7016;DHT22;3548;48.402;9.990;2023-04-07T03:37:25;6.20;99.90
7016;DHT22;3548;48.402;9.990;2023-04-07T03:39:51;6.20;99.90
7016;DHT22;3548;48.402;9.990;2023-04-07T03:42:16;6.10;99.90
7016;DHT22;3548;48.402;9.990;2023-04-07T03:44:42;6.10;99.90
7016;DHT22;3548;48.402;9.990;2023-04-07T03:47:07;6.10;99.90
7016;DHT22;3548;48.402;9.990;2023-04-07T03:49:33;6.10;99.90
7016;DHT22;3548;48.402;9.990;2023-04-07T03:51:58;6.10;99.90
7016;DHT22;3548;48.402;9.990;2023-04-07T03:54:24;6.10;99.90
7016;DHT22;3548;48.402;9.990;2023-04-07T03:56:50;6.10;99.90
7016;DHT22;3548;48.402;9.990;2023-04-07T03:59:16;6.10;99.90
7016;DHT22;3548;48.402;9.990;2023-04-07T04:01:41;6.10;99.90
7016;DHT22;3548;48.402;9.990;2023-04-07T04:04:07;6.10;99.90
7016;DHT22;3548;48.402;9.990;2023-04-07T04:06:33;6.10;99.90
7016;DHT22;3548;48.402;9.990;2023-04-07T04:08:58;6.10;99.90
7016;DHT22;3548;48.402;9.990;2023-04-07T04:11:24;6.10;99.90
7016;DHT22;3548;48.402;9.990;2023-04-07T04:13:50;6.10;99.90
7016;DHT22;3548;48.402;9.990;2023-04-07T04:16:16;6.10;99.90
7016;DHT22;3548;48.402;9.990;2023-04-07T04:18:42;6.10;99.90
7016;DHT22;3548;48.402;9.990;2023-04-07T04:21:08;6.10;99.90
7016;DHT22;3548;48.402;9.990;2023-04-07T04:23:34;6.20;99.90
7016;DHT22;3548;48.402;9.990;2023-04-07T04:25:59;6.20;99.90
7016;DHT22;3548;48.402;9.990;2023-04-07T04:28:28;6.20;99.90
7016;DHT22;3548;48.402;9.990;2023-04-07T04:30:54;6.10;99.90
7016;DHT22;3548;48.402;9.990;2023-04-07T04:33:20;6.10;99.90
7016;DHT22;3548;48.402;9.990;2023-04-07T04:35:45;6.10;99.90
7016;DHT22;3548;48.402;9.990;2023-04-07T04:38:11;6.10;99.90
7016;DHT22;3548;48.402;9.990;2023-04-07T04:40:37;6.10;99.90
7016;DHT22;3548;48.402;9.990;2023-04-07T04:43:02;6.10;99.90
7016;DHT22;3548;48.402;9.990;2023-04-07T04:45:31;6.10;99.90
7016;DHT22;3548;48.402;9.990;2023-04-07T04:47:57;6.10;99.90
7016;DHT22;3548;48.402;9.990;2023-04-07T04:50:23;6.10;99.90
7016;DHT22;3548;48.402;9.990;2023-04-07T04:52:48;6.20;99.90
7016;DHT22;3548;48.402;9.990;2023-04-07T04:55:14;6.20;99.90
7016;DHT22;3548;48.402;9.990;2023-04-07T04:57:39;6.20;99.90
7016;DHT22;3548;48.402;9.990;2023-04-07T05:00:06;6.20;99.90
7016;DHT22;3548;48.402;9.990;2023-04-07T05:02:32;6.20;99.90
7016;DHT22;3548;48.402;9.990;2023-04-07T05:04:58;6.20;99.90
7016;DHT22;3548;48.402;9.990;2023-04-07T05:07:23;6.20;99.90
7016;DHT22;3548;48.402;9.990;2023-04-07T05:09:49;6.10;99.90
7016;DHT22;3548;48.402;9.990;2023-04-07T05:12:15;6.00;99.90
7016;DHT22;3548;48.402;9.990;2023-04-07T05:14:40;5.90;99.90
7016;DHT22;3548;48.402;9.990;2023-04-07T05:17:06;5.80;99.90
7016;DHT22;3548;48.402;9.990;2023-04-07T05:19:32;5.70;99.90
7016;DHT22;3548;48.402;9.990;2023-04-07T05:21:58;5.60;99.90
7016;DHT22;3548;48.402;9.990;2023-04-07T05:24:25;5.60;99.90
7016;DHT22;3548;48.402;9.990;2023-04-07T05:26:51;5.60;99.90
7016;DHT22;3548;48.402;9.990;2023-04-07T05:29:17;5.50;99.90
7016;DHT22;3548;48.402;9.990;2023-04-07T05:31:42;5.40;99.90
7016;DHT22;3548;48.402;9.990;2023-04-07T05:34:08;5.40;99.90
7016;DHT22;3548;48.402;9.990;2023-04-07T05:36:34;5.50;99.90
7016;DHT22;3548;48.402;9.990;2023-04-07T05:38:59;5.50;99.90
7016;DHT22;3548;48.402;9.990;2023-04-07T05:41:25;5.50;99.90
7016;DHT22;3548;48.402;9.990;2023-04-07T05:43:51;5.40;99.90
7016;DHT22;3548;48.402;9.990;2023-04-07T05:46:17;5.40;99.90
7016;DHT22;3548;48.402;9.990;2023-04-07T05:48:42;5.40;99.90
7016;DHT22;3548;48.402;9.990;2023-04-07T05:51:08;5.40;99.90
7016;DHT22;3548;48.402;9.990;2023-04-07T05:53:34;5.40;99.90
7016;DHT22;3548;48.402;9.990;2023-04-07T05:55:59;5.40;99.90
7016;DHT22;3548;48.402;9.990;2023-04-07T05:58:25;5.40;99.90
7016;DHT22;3548;48.402;9.990;2023-04-07T06:00:50;5.40;99.90
7016;DHT22;3548;48.402;9.990;2023-04-07T06:03:16;5.40;99.90
7016;DHT22;3548;48.402;9.990;2023-04-07T06:05:44;5.40;99.90
7016;DHT22;3548;48.402;9.990;2023-04-07T06:08:09;5.40;99.90
7016;DHT22;3548;48.402;9.990;2023-04-07T06:10:35;5.50;99.90
7016;DHT22;3548;48.402;9.990;2023-04-07T06:13:01;5.50;99.90
7016;DHT22;3548;48.402;9.990;2023-04-07T06:15:26;5.60;99.90
7016;DHT22;3548;48.402;9.990;2023-04-07T06:17:52;5.60;99.90
7016;DHT22;3548;48.402;9.990;2023-04-07T06:20:17;5.60;99.90
7016;DHT22;3548;48.402;9.990;2023-04-07T06:22:46;5.60;99.90
7016;DHT22;3548;48.402;9.990;2023-04-07T06:25:11;5.70;99.90
7016;DHT22;3548;48.402;9.990;2023-04-07T06:27:37;5.70;99.90
7016;DHT22;3548;48.402;9.990;2023-04-07T06:30:03;5.80;99.90
7016;DHT22;3548;48.402;9.990;2023-04-07T06:32:29;5.80;99.90
7016;DHT22;3548;48.402;9.990;2023-04-07T06:34:54;5.80;99.90
7016;DHT22;3548;48.402;9.990;2023-04-07T06:37:20;5.80;99.90
7016;DHT22;3548;48.402;9.990;2023-04-07T06:39:48;5.80;99.90
7016;DHT22;3548;48.402;9.990;2023-04-07T06:42:14;5.90;99.90
7016;DHT22;3548;48.402;9.990;2023-04-07T06:44:40;5.90;99.90
7016;DHT22;3548;48.402;9.990;2023-04-07T06:47:05;6.00;99.90
7016;DHT22;3548;48.402;9.990;2023-04-07T06:49:31;6.10;99.90
7016;DHT22;3548;48.402;9.990;2023-04-07T06:51:57;6.20;99.90
7016;DHT22;3548;48.402;9.990;2023-04-07T06:54:22;6.30;99.90
7016;DHT22;3548;48.402;9.990;2023-04-07T06:56:48;6.40;99.90
7016;DHT22;3548;48.402;9.990;2023-04-07T06:59:14;6.40;99.90
7016;DHT22;3548;48.402;9.990;2023-04-07T07:01:40;6.50;99.90
7016;DHT22;3548;48.402;9.990;2023-04-07T07:04:06;6.60;99.90
7016;DHT22;3548;48.402;9.990;2023-04-07T07:06:31;6.60;99.90
7016;DHT22;3548;48.402;9.990;2023-04-07T07:08:57;6.70;99.90
7016;DHT22;3548;48.402;9.990;2023-04-07T07:11:24;6.80;99.90
7016;DHT22;3548;48.402;9.990;2023-04-07T07:13:50;7.00;99.90
7016;DHT22;3548;48.402;9.990;2023-04-07T07:16:15;7.10;99.90
7016;DHT22;3548;48.402;9.990;2023-04-07T07:18:41;7.30;99.90
7016;DHT22;3548;48.402;9.990;2023-04-07T07:21:07;7.50;99.90
7016;DHT22;3548;48.402;9.990;2023-04-07T07:23:32;7.70;99.90
7016;DHT22;3548;48.402;9.990;2023-04-07T07:25:59;8.00;99.90
7016;DHT22;3548;48.402;9.990;2023-04-07T07:28:24;8.10;99.90
7016;DHT22;3548;48.402;9.990;2023-04-07T07:30:50;8.20;99.90
7016;DHT22;3548;48.402;9.990;2023-04-07T07:33:16;8.30;99.90
7016;DHT22;3548;48.402;9.990;2023-04-07T07:35:42;8.40;99.90
7016;DHT22;3548;48.402;9.990;2023-04-07T07:38:07;8.40;99.90
7016;DHT22;3548;48.402;9.990;2023-04-07T07:40:33;8.40;99.90
7016;DHT22;3548;48.402;9.990;2023-04-07T07:43:01;8.50;99.90
7016;DHT22;3548;48.402;9.990;2023-04-07T07:45:27;8.60;99.90
7016;DHT22;3548;48.402;9.990;2023-04-07T07:47:53;8.50;99.90
7016;DHT22;3548;48.402;9.990;2023-04-07T07:50:18;8.50;99.90
7016;DHT22;3548;48.402;9.990;2023-04-07T07:52:44;8.50;99.90
7016;DHT22;3548;48.402;9.990;2023-04-07T07:55:10;8.60;99.90
7016;DHT22;3548;48.402;9.990;2023-04-07T07:57:36;8.80;99.90
7016;DHT22;3548;48.402;9.990;2023-04-07T08:00:02;9.00;99.90
7016;DHT22;3548;48.402;9.990;2023-04-07T08:02:28;9.30;99.90
7016;DHT22;3548;48.402;9.990;2023-04-07T08:04:59;9.40;99.90
7016;DHT22;3548;48.402;9.990;2023-04-07T08:07:25;9.50;99.90
7016;DHT22;3548;48.402;9.990;2023-04-07T08:09:51;9.60;99.90
7016;DHT22;3548;48.402;9.990;2023-04-07T08:12:17;9.70;99.90
7016;DHT22;3548;48.402;9.990;2023-04-07T08:14:43;9.90;99.90
7016;DHT22;3548;48.402;9.990;2023-04-07T08:17:08;10.10;99.90
7016;DHT22;3548;48.402;9.990;2023-04-07T08:19:34;10.30;99.90
7016;DHT22;3548;48.402;9.990;2023-04-07T08:22:00;10.40;99.90
7016;DHT22;3548;48.402;9.990;2023-04-07T08:24:28;10.40;99.90
7016;DHT22;3548;48.402;9.990;2023-04-07T08:26:53;10.50;99.90
7016;DHT22;3548;48.402;9.990;2023-04-07T08:29:19;10.40;99.90
7016;DHT22;3548;48.402;9.990;2023-04-07T08:31:44;10.30;99.90
7016;DHT22;3548;48.402;9.990;2023-04-07T08:34:10;10.30;99.90
7016;DHT22;3548;48.402;9.990;2023-04-07T08:36:38;10.50;99.90
7016;DHT22;3548;48.402;9.990;2023-04-07T08:39:03;10.70;99.90
7016;DHT22;3548;48.402;9.990;2023-04-07T08:41:32;10.90;99.90
7016;DHT22;3548;48.402;9.990;2023-04-07T08:44:00;11.00;99.90
7016;DHT22;3548;48.402;9.990;2023-04-07T08:46:26;11.10;99.90
7016;DHT22;3548;48.402;9.990;2023-04-07T08:48:55;11.10;99.90
7016;DHT22;3548;48.402;9.990;2023-04-07T08:51:30;11.20;99.90
7016;DHT22;3548;48.402;9.990;2023-04-07T08:54:05;11.20;99.90
7016;DHT22;3548;48.402;9.990;2023-04-07T08:56:33;11.30;99.90
7016;DHT22;3548;48.402;9.990;2023-04-07T08:59:01;11.50;99.90
7016;DHT22;3548;48.402;9.990;2023-04-07T09:01:28;11.20;99.90
7016;DHT22;3548;48.402;9.990;2023-04-07T09:03:56;11.00;99.90
7016;DHT22;3548;48.402;9.990;2023-04-07T09:06:25;11.00;99.90
7016;DHT22;3548;48.402;9.990;2023-04-07T09:08:51;11.10;99.90
7016;DHT22;3548;48.402;9.990;2023-04-07T09:11:17;11.20;99.90
7016;DHT22;3548;48.402;9.990;2023-04-07T09:13:42;11.30;99.90
7016;DHT22;3548;48.402;9.990;2023-04-07T09:16:08;11.40;99.60
7016;DHT22;3548;48.402;9.990;2023-04-07T09:18:34;11.40;99.90
7016;DHT22;3548;48.402;9.990;2023-04-07T09:21:02;11.40;99.80
7016;DHT22;3548;48.402;9.990;2023-04-07T09:23:35;11.50;99.70
7016;DHT22;3548;48.402;9.990;2023-04-07T09:28:57;11.20;99.50
7016;DHT22;3548;48.402;9.990;2023-04-07T09:31:44;10.90;99.50
7016;DHT22;3548;48.402;9.990;2023-04-07T09:34:30;10.80;99.90
7016;DHT22;3548;48.402;9.990;2023-04-07T09:36:56;10.60;99.90
7016;DHT22;3548;48.402;9.990;2023-04-07T09:39:22;10.60;99.90
7016;DHT22;3548;48.402;9.990;2023-04-07T09:41:48;10.70;99.90
7016;DHT22;3548;48.402;9.990;2023-04-07T09:44:14;10.70;99.90
7016;DHT22;3548;48.402;9.990;2023-04-07T09:46:54;10.80;99.90
7016;DHT22;3548;48.402;9.990;2023-04-07T09:49:24;10.70;99.90
7016;DHT22;3548;48.402;9.990;2023-04-07T09:51:58;10.70;99.90
7016;DHT22;3548;48.402;9.990;2023-04-07T09:54:38;10.90;99.90
7016;DHT22;3548;48.402;9.990;2023-04-07T09:57:05;11.20;99.90
7016;DHT22;3548;48.402;9.990;2023-04-07T09:59:34;11.40;99.80
7016;DHT22;3548;48.402;9.990;2023-04-07T10:02:00;11.80;99.30
7016;DHT22;3548;48.402;9.990;2023-04-07T10:04:26;12.00;98.60
7016;DHT22;3548;48.402;9.990;2023-04-07T10:06:52;12.30;98.40
7016;DHT22;3548;48.402;9.990;2023-04-07T10:09:22;12.50;98.00
7016;DHT22;3548;48.402;9.990;2023-04-07T10:11:50;12.70;97.50
7016;DHT22;3548;48.402;9.990;2023-04-07T10:14:18;12.80;96.70
7016;DHT22;3548;48.402;9.990;2023-04-07T10:16:46;12.80;97.60
7016;DHT22;3548;48.402;9.990;2023-04-07T10:19:12;12.90;97.20
7016;DHT22;3548;48.402;9.990;2023-04-07T10:21:42;12.90;96.60
7016;DHT22;3548;48.402;9.990;2023-04-07T10:26:53;12.40;96.80
7016;DHT22;3548;48.402;9.990;2023-04-07T10:29:21;12.60;96.90
7016;DHT22;3548;48.402;9.990;2023-04-07T10:31:48;12.40;98.10
7016;DHT22;3548;48.402;9.990;2023-04-07T10:34:14;12.40;99.20
7016;DHT22;3548;48.402;9.990;2023-04-07T10:37:11;12.70;98.70
7016;DHT22;3548;48.402;9.990;2023-04-07T10:39:43;12.70;98.60
7016;DHT22;3548;48.402;9.990;2023-04-07T10:45:09;13.20;97.10
7016;DHT22;3548;48.402;9.990;2023-04-07T10:50:24;12.90;97.50
7016;DHT22;3548;48.402;9.990;2023-04-07T10:53:15;12.90;97.80
7016;DHT22;3548;48.402;9.990;2023-04-07T10:55:43;12.90;97.20
7016;DHT22;3548;48.402;9.990;2023-04-07T10:58:16;13.00;97.30
7016;DHT22;3548;48.402;9.990;2023-04-07T11:03:30;12.90;96.30
7016;DHT22;3548;48.402;9.990;2023-04-07T11:06:04;12.80;96.60
7016;DHT22;3548;48.402;9.990;2023-04-07T11:08:34;12.80;97.90
7016;DHT22;3548;48.402;9.990;2023-04-07T11:11:01;12.60;98.40
7016;DHT22;3548;48.402;9.990;2023-04-07T11:13:26;12.30;99.60
7016;DHT22;3548;48.402;9.990;2023-04-07T11:15:52;12.20;99.10
7016;DHT22;3548;48.402;9.990;2023-04-07T11:18:19;12.20;99.10
7016;DHT22;3548;48.402;9.990;2023-04-07T11:20:53;12.10;99.50
7016;DHT22;3548;48.402;9.990;2023-04-07T11:23:21;12.10;99.10
7016;DHT22;3548;48.402;9.990;2023-04-07T11:26:01;12.20;98.90
7016;DHT22;3548;48.402;9.990;2023-04-07T11:28:28;12.40;99.20
7016;DHT22;3548;48.402;9.990;2023-04-07T11:30:54;12.10;99.20
7016;DHT22;3548;48.402;9.990;2023-04-07T11:33:28;12.10;99.00
7016;DHT22;3548;48.402;9.990;2023-04-07T11:35:58;12.10;98.80
7016;DHT22;3548;48.402;9.990;2023-04-07T11:38:28;12.40;98.80
7016;DHT22;3548;48.402;9.990;2023-04-07T11:40:55;12.50;98.30
7016;DHT22;3548;48.402;9.990;2023-04-07T11:43:26;12.50;98.30
7016;DHT22;3548;48.402;9.990;2023-04-07T11:46:12;12.30;98.60
7016;DHT22;3548;48.402;9.990;2023-04-07T11:48:39;12.10;99.10
7016;DHT22;3548;48.402;9.990;2023-04-07T11:51:06;12.00;98.50
7016;DHT22;3548;48.402;9.990;2023-04-07T11:53:38;11.90;99.00
7016;DHT22;3548;48.402;9.990;2023-04-07T11:56:06;11.90;99.10
7016;DHT22;3548;48.402;9.990;2023-04-07T11:58:37;11.90;99.00
7016;DHT22;3548;48.402;9.990;2023-04-07T12:01:05;11.90;98.40
7016;DHT22;3548;48.402;9.990;2023-04-07T12:03:35;11.90;98.00
7016;DHT22;3548;48.402;9.990;2023-04-07T12:06:02;11.80;98.40
7016;DHT22;3548;48.402;9.990;2023-04-07T12:11:03;11.50;99.20
7016;DHT22;3548;48.402;9.990;2023-04-07T12:13:29;11.40;98.90
7016;DHT22;3548;48.402;9.990;2023-04-07T12:15:57;11.40;99.20
7016;DHT22;3548;48.402;9.990;2023-04-07T12:18:23;11.30;99.50
7016;DHT22;3548;48.402;9.990;2023-04-07T12:20:49;11.20;99.60
7016;DHT22;3548;48.402;9.990;2023-04-07T12:23:15;11.10;99.90
7016;DHT22;3548;48.402;9.990;2023-04-07T12:25:41;11.10;99.90
7016;DHT22;3548;48.402;9.990;2023-04-07T12:28:06;10.80;99.80
7016;DHT22;3548;48.402;9.990;2023-04-07T12:30:32;10.60;98.70
7016;DHT22;3548;48.402;9.990;2023-04-07T12:32:58;10.40;98.40
7016;DHT22;3548;48.402;9.990;2023-04-07T12:35:23;10.20;99.10
7016;DHT22;3548;48.402;9.990;2023-04-07T12:37:49;10.10;99.70
7016;DHT22;3548;48.402;9.990;2023-04-07T12:40:16;9.90;99.90
7016;DHT22;3548;48.402;9.990;2023-04-07T12:42:42;9.80;99.90
7016;DHT22;3548;48.402;9.990;2023-04-07T12:45:08;9.70;99.90
7016;DHT22;3548;48.402;9.990;2023-04-07T12:47:33;9.60;99.90
7016;DHT22;3548;48.402;9.990;2023-04-07T12:49:59;9.60;99.90
7016;DHT22;3548;48.402;9.990;2023-04-07T12:52:25;9.50;99.90
7016;DHT22;3548;48.402;9.990;2023-04-07T12:54:51;9.50;99.90
7016;DHT22;3548;48.402;9.990;2023-04-07T12:57:18;9.50;99.90
7016;DHT22;3548;48.402;9.990;2023-04-07T12:59:43;9.50;99.90
7016;DHT22;3548;48.402;9.990;2023-04-07T13:02:09;9.50;99.90
7016;DHT22;3548;48.402;9.990;2023-04-07T13:04:38;9.50;99.90
7016;DHT22;3548;48.402;9.990;2023-04-07T13:07:05;9.60;99.90
7016;DHT22;3548;48.402;9.990;2023-04-07T13:09:31;9.60;99.90
7016;DHT22;3548;48.402;9.990;2023-04-07T13:11:57;9.60;99.90
7016;DHT22;3548;48.402;9.990;2023-04-07T13:14:24;9.70;99.90
7016;DHT22;3548;48.402;9.990;2023-04-07T13:16:50;9.70;99.90
7016;DHT22;3548;48.402;9.990;2023-04-07T13:19:15;9.70;99.90
7016;DHT22;3548;48.402;9.990;2023-04-07T13:21:41;9.60;99.90
7016;DHT22;3548;48.402;9.990;2023-04-07T13:24:07;9.60;99.90
7016;DHT22;3548;48.402;9.990;2023-04-07T13:26:33;9.60;99.90
7016;DHT22;3548;48.402;9.990;2023-04-07T13:28:58;9.60;99.90
7016;DHT22;3548;48.402;9.990;2023-04-07T13:31:24;9.60;99.90
7016;DHT22;3548;48.402;9.990;2023-04-07T13:33:49;9.60;99.90
7016;DHT22;3548;48.402;9.990;2023-04-07T13:36:15;9.60;99.90
7016;DHT22;3548;48.402;9.990;2023-04-07T13:38:40;9.60;99.90
7016;DHT22;3548;48.402;9.990;2023-04-07T13:41:06;9.60;99.90
7016;DHT22;3548;48.402;9.990;2023-04-07T13:43:32;9.70;99.90
7016;DHT22;3548;48.402;9.990;2023-04-07T13:45:57;9.70;99.90
7016;DHT22;3548;48.402;9.990;2023-04-07T13:48:23;9.80;99.90
7016;DHT22;3548;48.402;9.990;2023-04-07T13:50:49;9.90;99.90
7016;DHT22;3548;48.402;9.990;2023-04-07T13:53:14;10.00;99.90
7016;DHT22;3548;48.402;9.990;2023-04-07T13:55:40;10.10;99.90
7016;DHT22;3548;48.402;9.990;2023-04-07T13:58:06;10.10;99.90
7016;DHT22;3548;48.402;9.990;2023-04-07T14:00:32;10.20;99.90
7016;DHT22;3548;48.402;9.990;2023-04-07T14:03:00;10.30;99.90
7016;DHT22;3548;48.402;9.990;2023-04-07T14:05:26;10.30;99.90
7016;DHT22;3548;48.402;9.990;2023-04-07T14:07:52;10.30;99.90
7016;DHT22;3548;48.402;9.990;2023-04-07T14:10:18;10.30;99.90
7016;DHT22;3548;48.402;9.990;2023-04-07T14:12:44;10.30;99.90
7016;DHT22;3548;48.402;9.990;2023-04-07T14:15:09;10.40;99.90
7016;DHT22;3548;48.402;9.990;2023-04-07T14:17:35;10.40;99.90
7016;DHT22;3548;48.402;9.990;2023-04-07T14:20:01;10.50;99.90
7016;DHT22;3548;48.402;9.990;2023-04-07T14:22:27;10.60;99.90
7016;DHT22;3548;48.402;9.990;2023-04-07T14:24:52;10.60;99.90
7016;DHT22;3548;48.402;9.990;2023-04-07T14:27:19;10.70;99.90
7016;DHT22;3548;48.402;9.990;2023-04-07T14:29:47;10.80;99.90
7016;DHT22;3548;48.402;9.990;2023-04-07T14:32:12;10.90;99.90
7016;DHT22;3548;48.402;9.990;2023-04-07T14:34:38;11.10;99.80
7016;DHT22;3548;48.402;9.990;2023-04-07T14:37:04;11.30;98.80
7016;DHT22;3548;48.402;9.990;2023-04-07T14:39:29;11.30;97.50
7016;DHT22;3548;48.402;9.990;2023-04-07T14:41:55;11.30;97.60
7016;DHT22;3548;48.402;9.990;2023-04-07T14:44:20;11.30;97.90
7016;DHT22;3548;48.402;9.990;2023-04-07T14:46:46;11.30;98.10
7016;DHT22;3548;48.402;9.990;2023-04-07T14:49:13;11.40;98.10
7016;DHT22;3548;48.402;9.990;2023-04-07T14:51:39;11.50;97.40
7016;DHT22;3548;48.402;9.990;2023-04-07T14:54:05;11.60;97.20
7016;DHT22;3548;48.402;9.990;2023-04-07T14:56:30;11.70;97.00
7016;DHT22;3548;48.402;9.990;2023-04-07T14:58:56;11.80;96.50
7016;DHT22;3548;48.402;9.990;2023-04-07T15:01:22;11.90;96.20
7016;DHT22;3548;48.402;9.990;2023-04-07T15:03:47;11.90;96.10
7016;DHT22;3548;48.402;9.990;2023-04-07T15:06:13;11.90;96.00
7016;DHT22;3548;48.402;9.990;2023-04-07T15:08:39;11.80;95.70
7016;DHT22;3548;48.402;9.990;2023-04-07T15:11:06;11.80;96.00
7016;DHT22;3548;48.402;9.990;2023-04-07T15:13:32;11.80;96.10
7016;DHT22;3548;48.402;9.990;2023-04-07T15:16:12;11.80;95.90
7016;DHT22;3548;48.402;9.990;2023-04-07T15:18:40;11.80;95.80
7016;DHT22;3548;48.402;9.990;2023-04-07T15:21:07;11.90;96.10
7016;DHT22;3548;48.402;9.990;2023-04-07T15:23:33;12.00;96.00
7016;DHT22;3548;48.402;9.990;2023-04-07T15:25:58;12.10;95.80
7016;DHT22;3548;48.402;9.990;2023-04-07T15:28:25;12.20;95.60
7016;DHT22;3548;48.402;9.990;2023-04-07T15:30:51;12.20;95.00
7016;DHT22;3548;48.402;9.990;2023-04-07T15:33:16;12.20;95.30
7016;DHT22;3548;48.402;9.990;2023-04-07T15:35:42;12.20;95.70
7016;DHT22;3548;48.402;9.990;2023-04-07T15:38:08;12.10;95.70
7016;DHT22;3548;48.402;9.990;2023-04-07T15:40:38;12.10;95.70
7016;DHT22;3548;48.402;9.990;2023-04-07T15:43:04;12.10;96.00
7016;DHT22;3548;48.402;9.990;2023-04-07T15:45:31;12.00;96.20
7016;DHT22;3548;48.402;9.990;2023-04-07T15:47:57;12.00;96.10
7016;DHT22;3548;48.402;9.990;2023-04-07T15:50:23;12.00;96.40
7016;DHT22;3548;48.402;9.990;2023-04-07T15:52:49;12.00;96.70
7016;DHT22;3548;48.402;9.990;2023-04-07T15:55:15;12.00;97.00
7016;DHT22;3548;48.402;9.990;2023-04-07T15:57:40;12.00;97.10
7016;DHT22;3548;48.402;9.990;2023-04-07T16:00:06;11.90;97.20
7016;DHT22;3548;48.402;9.990;2023-04-07T16:02:32;11.90;97.80
7016;DHT22;3548;48.402;9.990;2023-04-07T16:04:58;11.80;97.90
7016;DHT22;3548;48.402;9.990;2023-04-07T16:07:23;11.70;98.10
7016;DHT22;3548;48.402;9.990;2023-04-07T16:09:50;11.60;98.60
7016;DHT22;3548;48.402;9.990;2023-04-07T16:12:16;11.60;98.60
7016;DHT22;3548;48.402;9.990;2023-04-07T16:14:42;11.60;99.10
7016;DHT22;3548;48.402;9.990;2023-04-07T16:17:10;11.60;98.90
7016;DHT22;3548;48.402;9.990;2023-04-07T16:23:09;11.70;98.70
7016;DHT22;3548;48.402;9.990;2023-04-07T16:25:35;11.60;97.40
7016;DHT22;3548;48.402;9.990;2023-04-07T16:28:01;11.40;97.50
7016;DHT22;3548;48.402;9.990;2023-04-07T16:30:26;11.40;97.40
7016;DHT22;3548;48.402;9.990;2023-04-07T16:32:52;11.30;97.60
7016;DHT22;3548;48.402;9.990;2023-04-07T16:35:17;11.20;97.80